Time;durP1;ratioP1;P1;durP2;ratioP2;P2;SDS_P1;SDS_P2;PMS_P1;PMS_P2;Temp;Humidity;BMP_temperature;BMP_pressure;BME280_temperature;BME280_humidity;BME280_pressure;Samples;Min_cycle;Max_cycle;Signal;HPM_P1;HPM_P2
2022/06/04 00:09:06;;;;;;;10.38;3.40;;;;;;;9.23;53.04;102236.06;4864694;29;20052;-76
2022/06/04 00:20:12;;;;;;;5.50;3.30;;;;;;;9.08;53.32;102226.66;4872830;29;20102;-76
2022/06/04 00:24:01;;;;;;;8.20;4.25;;;;;;;9.14;53.27;102220.50;4893630;29;20056;-73
2022/06/04 01:02:03;;;;;;;8.43;2.22;;;;;;;9.08;53.26;102211.00;4847727;29;20070;-77
2022/06/04 01:13:38;;;;;;;8.27;3.35;;;;;;;9.06;53.44;102211.91;4813046;29;20131;-76
2022/06/04 01:17:48;;;;;;;10.60;3.33;;;;;;;8.97;53.28;102212.88;4766599;29;20055;-76
2022/06/04 02:44:29;;;;;;;5.15;2.65;;;;;;;9.32;52.08;102204.63;4930005;29;20631;-78
2022/06/04 02:52:09;;;;;;;5.00;1.85;;;;;;;9.27;52.21;102227.28;4897658;29;20085;-78
2022/06/04 02:55:41;;;;;;;4.38;2.13;;;;;;;9.35;51.90;102235.88;4899460;29;20051;-77
2022/06/04 03:03:18;;;;;;;;;;;;;;;9.47;51.57;102232.22;4810535;29;20150;-78
2022/06/04 03:11:06;;;;;;;8.35;2.47;;;;;;;9.46;51.65;102238.34;4812359;29;20049;-76
2022/06/04 03:14:15;;;;;;;5.28;2.63;;;;;;;9.18;52.13;102235.22;4865789;29;20124;-77
2022/06/04 03:18:09;;;;;;;2.92;2.22;;;;;;;9.35;51.59;102238.50;4836838;29;20143;-77
2022/06/04 03:21:07;;;;;;;2.75;1.85;;;;;;;9.35;51.77;102241.09;4844398;29;20068;-76
2022/06/04 03:24:15;;;;;;;2.95;2.00;;;;;;;9.36;51.74;102241.97;4833470;29;20068;-76
2022/06/04 03:27:05;;;;;;;3.40;1.85;;;;;;;9.48;51.75;102254.00;4802570;29;20091;-76
2022/06/04 03:42:40;;;;;;;8.55;2.60;;;;;;;9.77;50.93;102266.66;4955671;28;20100;-77
2022/06/04 03:46:02;;;;;;;6.80;2.58;;;;;;;9.83;50.63;102253.50;4970281;28;20057;-77
2022/06/04 03:49:27;;;;;;;5.55;2.50;;;;;;;9.80;50.41;102249.19;4961850;28;20065;-77
2022/06/04 04:00:58;;;;;;;4.38;2.72;;;;;;;9.68;50.69;102233.69;4855670;29;20076;-80
2022/06/04 04:08:39;;;;;;;7.53;2.42;;;;;;;9.60;51.16;102232.94;4793414;29;20051;-77
2022/06/04 04:19:58;;;;;;;4.13;1.95;;;;;;;9.88;50.84;102220.38;4741448;30;20047;-77
2022/06/04 04:31:31;;;;;;;5.57;3.08;;;;;;;10.29;49.90;102212.75;4747437;29;20216;-75
2022/06/04 04:46:44;;;;;;;7.15;2.38;;;;;;;10.60;49.57;102200.81;4867386;29;20056;-75
2022/06/04 05:39:47;;;;;;;2.58;1.33;;;;;;;18.86;31.92;102242.38;4890003;28;20078;-79
2022/06/04 05:46:49;;;;;;;1.92;1.50;;;;;;;14.48;39.67;102258.84;4994107;28;20037;-76
2022/06/04 05:54:00;;;;;;;3.33;1.65;;;;;;;14.51;39.89;102266.63;4884548;29;20088;-77
2022/06/04 06:05:27;;;;;;;10.95;2.53;;;;;;;17.27;33.72;102269.66;4823819;29;20060;-77
2022/06/04 06:13:29;;;;;;;3.40;1.52;;;;;;;20.00;28.52;102262.59;4861724;29;20136;-78
2022/06/04 06:21:35;;;;;;;5.05;1.73;;;;;;;17.65;31.56;102275.81;4805616;29;20061;-77
2022/06/04 06:24:01;;;;;;;4.72;1.65;;;;;;;19.08;29.66;102268.59;4798423;29;20062;-75
2022/06/04 06:30:48;;;;;;;3.55;1.25;;;;;;;21.09;27.14;102267.50;4897548;29;20051;-74
2022/06/04 06:38:00;;;;;;;3.33;1.30;;;;;;;20.72;26.82;102276.88;4799694;29;20150;-77
2022/06/04 06:48:51;;;;;;;2.83;0.85;;;;;;;20.50;26.94;102277.34;4851032;29;20092;-77
2022/06/04 06:55:17;;;;;;;3.10;0.88;;;;;;;23.19;24.44;102283.66;4906678;29;20031;-76
2022/06/04 06:58:12;;;;;;;4.90;1.02;;;;;;;22.85;24.14;102301.19;4905627;29;20268;-78
2022/06/04 07:00:46;;;;;;;3.22;0.80;;;;;;;23.57;23.60;102304.06;4947187;28;20095;-78
2022/06/04 07:04:11;;;;;;;3.72;1.05;;;;;;;24.81;21.69;102302.66;4908523;28;20085;-79
2022/06/04 07:07:21;;;;;;;3.30;1.00;;;;;;;25.30;20.57;102302.44;4967913;28;20070;-75
2022/06/04 07:09:54;;;;;;;3.17;0.70;;;;;;;23.55;22.89;102300.66;4973233;28;20053;-76
2022/06/04 07:12:20;;;;;;;3.35;1.17;;;;;;;24.22;21.90;102295.63;4967547;28;20113;-77
2022/06/04 07:14:52;;;;;;;2.75;1.00;;;;;;;25.52;21.25;102297.06;4968541;28;20047;-78
2022/06/04 07:17:34;;;;;;;3.58;1.05;;;;;;;25.48;20.95;102291.06;4946460;28;20046;-77
2022/06/04 07:20:48;;;;;;;2.15;0.80;;;;;;;23.30;23.49;102291.78;4956192;28;20041;-78
2022/06/04 07:23:18;;;;;;;4.07;0.90;;;;;;;20.40;26.68;102305.41;4957422;28;20038;-78
2022/06/04 07:25:55;;;;;;;5.68;1.02;;;;;;;18.97;29.26;102318.66;4952404;28;20042;-78
2022/06/04 07:28:21;;;;;;;;;;;;;;;18.52;30.00;102314.75;4960603;28;20058;-79
2022/06/04 07:30:46;;;;;;;2.72;0.80;;;;;;;20.10;27.95;102311.50;4975627;28;19972;-78
2022/06/04 07:33:12;;;;;;;2.72;1.13;;;;;;;19.32;28.31;102310.59;4962529;28;20127;-78
2022/06/04 07:35:44;;;;;;;2.75;1.02;;;;;;;19.46;28.68;102316.00;4956863;28;20057;-76
2022/06/04 07:38:10;;;;;;;2.50;1.42;;;;;;;20.25;27.68;102313.31;4960147;28;20070;-77
2022/06/04 07:40:38;;;;;;;2.22;1.05;;;;;;;21.74;25.49;102320.13;4977100;28;20199;-76
2022/06/04 07:43:03;;;;;;;2.75;0.80;;;;;;;22.85;23.78;102312.72;4945219;28;20166;-80
2022/06/04 07:45:29;;;;;;;2.85;1.00;;;;;;;22.96;23.53;102303.94;4965972;28;20072;-79
2022/06/04 07:47:54;;;;;;;3.58;0.60;;;;;;;24.61;22.71;102290.03;4959777;28;20281;-78
2022/06/04 07:50:21;;;;;;;1.40;1.13;;;;;;;24.97;22.01;102299.69;4962096;28;20085;-77
2022/06/04 07:52:46;;;;;;;5.72;1.00;;;;;;;25.90;21.12;102305.56;4964405;28;20047;-76
2022/06/04 07:55:12;;;;;;;2.83;0.88;;;;;;;25.69;20.62;102314.44;4947708;28;20370;-78
2022/06/04 07:57:38;;;;;;;8.65;1.77;;;;;;;22.66;23.49;102309.59;4963294;28;20378;-78
2022/06/04 08:00:06;;;;;;;2.97;1.05;;;;;;;21.23;25.91;102311.84;4943895;28;20035;-80
2022/06/04 08:02:38;;;;;;;3.78;1.30;;;;;;;20.68;27.59;102307.22;4973655;28;20077;-79
2022/06/04 08:05:03;;;;;;;2.47;1.05;;;;;;;19.02;29.31;102311.31;4948317;28;20741;-77
2022/06/04 08:07:29;;;;;;;1.08;0.70;;;;;;;20.10;28.38;102315.03;4974909;28;20023;-76
2022/06/04 08:09:55;;;;;;;2.42;0.82;;;;;;;18.81;29.76;102322.09;4963240;28;20651;-77
2022/06/04 08:12:22;;;;;;;8.30;1.55;;;;;;;19.02;29.73;102311.31;4959602;28;20043;-76
2022/06/04 08:14:47;;;;;;;4.05;1.00;;;;;;;21.53;27.09;102310.84;4979432;28;20042;-78
2022/06/04 08:17:51;;;;;;;1.50;0.75;;;;;;;23.68;24.25;102312.13;4939515;28;20039;-74
2022/06/04 08:20:25;;;;;;;1.83;0.68;;;;;;;23.88;22.75;102313.38;4973423;28;20031;-78
2022/06/04 08:22:53;;;;;;;5.18;1.00;;;;;;;24.21;22.58;102317.09;4955615;28;20043;-75
2022/06/04 08:25:22;;;;;;;2.67;1.08;;;;;;;21.92;25.31;102323.38;4944450;28;20080;-77
2022/06/04 08:27:48;;;;;;;2.08;0.82;;;;;;;20.31;27.40;102325.38;4950077;28;20058;-78
2022/06/04 08:30:14;;;;;;;5.00;1.25;;;;;;;20.25;27.24;102315.13;4948122;28;20035;-78
2022/06/04 08:32:44;;;;;;;5.18;1.00;;;;;;;22.17;25.02;102327.97;4960703;28;20090;-76
2022/06/04 08:35:45;;;;;;;2.83;1.25;;;;;;;23.18;23.87;102319.28;4967543;28;20035;-79
2022/06/04 08:38:17;;;;;;;1.58;0.63;;;;;;;22.38;24.29;102319.47;4973924;28;20069;-79
2022/06/04 08:40:53;;;;;;;2.05;0.77;;;;;;;23.73;22.99;102323.31;4956985;28;20031;-79
2022/06/04 08:44:16;;;;;;;4.43;1.00;;;;;;;24.26;21.81;102322.97;4962653;28;20110;-78
2022/06/04 08:47:51;;;;;;;1.70;0.85;;;;;;;22.89;22.86;102324.84;4982464;28;20039;-77
2022/06/04 08:50:35;;;;;;;1.83;0.80;;;;;;;23.63;23.15;102330.28;4982382;28;20048;-78
2022/06/04 08:53:04;;;;;;;2.88;0.63;;;;;;;22.83;23.44;102335.97;4970665;28;20111;-78
2022/06/04 08:58:34;;;;;;;1.90;0.55;;;;;;;23.74;22.37;102335.69;4971716;28;20087;-76
2022/06/04 09:01:35;;;;;;;1.50;0.70;;;;;;;25.46;21.07;102335.88;4972588;28;20039;-81
2022/06/04 09:04:25;;;;;;;1.75;0.82;;;;;;;24.77;21.23;102343.13;4959981;28;20047;-77
2022/06/04 09:07:22;;;;;;;3.28;0.77;;;;;;;21.61;25.18;102344.97;4964491;28;20066;-78
2022/06/04 09:10:34;;;;;;;2.05;0.50;;;;;;;23.44;23.96;102340.63;4963772;28;20446;-79
2022/06/04 09:13:31;;;;;;;5.78;0.90;;;;;;;23.87;23.52;102348.19;4966764;28;20046;-77
2022/06/04 09:16:11;;;;;;;2.80;1.48;;;;;;;23.57;23.36;102344.94;4960850;28;20073;-78
2022/06/04 09:18:38;;;;;;;3.08;1.20;;;;;;;24.15;22.96;102347.81;4970344;28;20304;-76
2022/06/04 09:21:09;;;;;;;2.47;1.08;;;;;;;24.64;23.00;102346.78;4961124;28;20035;-79
2022/06/04 09:24:19;;;;;;;1.70;0.98;;;;;;;24.92;22.27;102360.66;4959518;28;20057;-78
2022/06/04 09:27:28;;;;;;;2.08;0.70;;;;;;;22.98;24.03;102355.34;4964922;28;20134;-79
2022/06/04 09:30:20;;;;;;;4.05;0.80;;;;;;;24.23;23.34;102355.25;4926140;28;20050;-75
2022/06/04 09:33:20;;;;;;;1.13;0.68;;;;;;;23.25;24.20;102357.88;4939395;28;20088;-77
2022/06/04 09:35:54;;;;;;;1.75;0.80;;;;;;;23.03;24.41;102344.38;4942878;28;20055;-77
2022/06/04 09:38:36;;;;;;;3.90;1.00;;;;;;;22.20;25.22;102337.53;4959107;28;20050;-78
2022/06/04 09:41:18;;;;;;;4.93;1.35;;;;;;;21.89;26.83;102333.38;4962668;28;20048;-78
2022/06/04 09:44:13;;;;;;;2.47;0.90;;;;;;;21.30;27.24;102342.41;4964980;28;20241;-78
2022/06/04 09:46:46;;;;;;;1.50;0.70;;;;;;;20.17;28.00;102365.09;4976025;28;20042;-77
2022/06/04 09:49:29;;;;;;;1.63;0.82;;;;;;;19.74;29.71;102347.16;4971412;28;20053;-79
2022/06/04 09:57:08;;;;;;;3.33;1.08;;;;;;;20.08;29.51;102339.94;4976165;28;20057;-78
2022/06/04 10:00:27;;;;;;;2.00;0.77;;;;;;;19.91;28.63;102346.22;4967444;28;20048;-80
2022/06/04 10:03:24;;;;;;;4.70;1.20;;;;;;;19.94;29.86;102343.38;4964506;28;20297;-79
2022/06/04 10:06:34;;;;;;;5.82;1.15;;;;;;;20.71;28.37;102338.94;4966242;28;20026;-75
2022/06/04 10:12:21;;;;;;;2.17;0.90;;;;;;;19.59;30.20;102338.28;4982034;28;20052;-75
2022/06/04 10:14:58;;;;;;;4.22;0.98;;;;;;;19.27;30.11;102337.34;4956281;28;20126;-81
2022/06/04 10:17:37;;;;;;;7.75;1.48;;;;;;;18.05;31.85;102345.28;4964413;28;20163;-77
2022/06/04 10:20:24;;;;;;;3.17;0.93;;;;;;;17.79;32.45;102347.41;4975405;28;20051;-77
2022/06/04 10:22:51;;;;;;;4.45;1.27;;;;;;;18.68;31.43;102355.44;4967552;28;20039;-75
2022/06/04 10:25:41;;;;;;;4.05;1.10;;;;;;;18.43;32.07;102356.69;4972634;28;20249;-77
2022/06/04 10:28:30;;;;;;;2.90;0.95;;;;;;;18.35;31.40;102352.69;4966249;28;20047;-77
2022/06/04 10:32:07;;;;;;;4.63;0.65;;;;;;;18.47;31.53;102352.94;4968276;28;20073;-78
2022/06/04 10:35:01;;;;;;;2.88;0.68;;;;;;;19.86;30.17;102365.06;4955192;28;20249;-74
2022/06/04 10:37:56;;;;;;;3.33;0.80;;;;;;;20.09;29.21;102358.44;4926358;28;20054;-74
2022/06/04 10:41:14;;;;;;;2.50;0.90;;;;;;;20.40;28.90;102359.34;4985021;28;20122;-78
2022/06/04 10:44:43;;;;;;;;;;;;;;;19.78;29.94;102363.78;4904672;28;20077;-75
2022/06/04 10:47:26;;;;;;;2.50;1.08;;;;;;;19.48;30.10;102361.84;4971248;28;19944;-73
2022/06/04 10:50:08;;;;;;;3.15;1.58;;;;;;;18.87;31.10;102365.91;4985733;28;20117;-77
2022/06/04 10:53:05;;;;;;;7.00;1.45;;;;;;;19.64;30.22;102370.69;4953162;28;20126;-74
2022/06/04 10:55:42;;;;;;;8.55;2.50;;;;;;;18.94;31.22;102366.50;4968216;28;20046;-79
2022/06/04 10:58:19;;;;;;;3.78;1.38;;;;;;;18.43;31.96;102372.56;4963771;28;20043;-79
2022/06/04 11:01:08;;;;;;;7.82;2.47;;;;;;;18.88;31.38;102379.13;4991074;28;20038;-80
2022/06/04 11:03:55;;;;;;;2.17;1.25;;;;;;;19.68;30.27;102364.28;4914779;28;20116;-80
2022/06/04 11:06:59;;;;;;;5.07;1.50;;;;;;;18.53;32.29;102372.94;4962022;28;20045;-78
2022/06/04 11:09:57;;;;;;;5.30;1.45;;;;;;;19.17;30.98;102368.81;4965117;28;20650;-76
2022/06/04 11:13:11;;;;;;;2.67;1.60;;;;;;;18.21;31.18;102371.91;4965654;28;20046;-80
2022/06/04 11:15:41;;;;;;;;;;;;;;;18.66;32.05;102373.19;4959855;28;20031;-76
2022/06/04 11:18:24;;;;;;;2.38;1.23;;;;;;;19.21;31.08;102370.34;4970441;28;19926;-77
2022/06/04 11:20:56;;;;;;;3.67;1.27;;;;;;;18.84;31.35;102369.59;4954717;28;20177;-77
2022/06/04 11:24:14;;;;;;;3.88;1.20;;;;;;;19.30;30.94;102368.97;4951201;28;20079;-75
2022/06/04 11:27:11;;;;;;;2.10;1.20;;;;;;;19.64;30.03;102368.06;4968981;28;20115;-77
2022/06/04 11:30:03;;;;;;;4.70;1.15;;;;;;;18.97;30.17;102382.25;4932865;28;20075;-77
2022/06/04 11:33:05;;;;;;;4.30;1.30;;;;;;;18.53;31.19;102383.53;4957809;28;20058;-77
2022/06/04 11:36:05;;;;;;;4.43;1.25;;;;;;;18.04;32.55;102376.19;4975339;28;20053;-74
2022/06/04 11:39:15;;;;;;;5.95;1.30;;;;;;;18.96;30.92;102380.50;4989401;28;20046;-77
2022/06/04 11:42:22;;;;;;;5.63;1.77;;;;;;;18.83;31.17;102386.44;4947209;28;20065;-78
2022/06/04 11:45:29;;;;;;;5.10;0.65;;;;;;;18.97;30.85;102387.53;4966747;28;20475;-76
2022/06/04 11:48:57;;;;;;;5.13;1.33;;;;;;;17.97;33.18;102395.91;4987029;28;20081;-77
2022/06/04 11:52:30;;;;;;;2.22;1.20;;;;;;;18.24;31.28;102391.13;4964681;28;20054;-75
2022/06/04 11:55:05;;;;;;;5.88;1.70;;;;;;;17.88;32.29;102391.06;4965779;28;20045;-76
2022/06/04 11:57:41;;;;;;;9.07;1.10;;;;;;;17.26;33.42;102387.69;4967480;28;20039;-79
2022/06/04 12:00:31;;;;;;;5.18;1.17;;;;;;;18.44;31.19;102384.84;4984451;28;20046;-80
2022/06/04 12:03:10;;;;;;;4.27;1.00;;;;;;;18.82;30.65;102382.06;4964252;28;20046;-76
2022/06/04 12:05:39;;;;;;;4.80;1.50;;;;;;;18.42;32.17;102385.84;4973098;28;20756;-77
2022/06/04 12:08:14;;;;;;;2.33;1.35;;;;;;;18.12;31.76;102373.19;4976664;28;20073;-78
2022/06/04 12:10:50;;;;;;;4.13;1.20;;;;;;;18.78;30.82;102377.84;4969987;28;20043;-76
2022/06/04 12:14:06;;;;;;;4.28;1.30;;;;;;;18.89;31.45;102375.53;4964719;28;20086;-77
2022/06/04 12:17:08;;;;;;;5.88;1.52;;;;;;;19.66;29.59;102376.78;4987120;28;20059;-74
2022/06/04 12:26:51;;;;;;;4.53;1.40;;;;;;;19.62;29.32;102372.59;4979023;28;20074;-76
2022/06/04 12:29:52;;;;;;;4.57;1.80;;;;;;;19.67;29.84;102356.41;4971918;28;20050;-78
2022/06/04 12:32:31;;;;;;;3.28;0.95;;;;;;;19.53;30.23;102364.25;4982848;28;20053;-77
2022/06/04 12:35:09;;;;;;;5.03;1.30;;;;;;;19.67;29.48;102361.72;4981046;28;20019;-76
2022/06/04 12:37:59;;;;;;;4.35;1.40;;;;;;;19.82;30.02;102354.72;4967462;28;20045;-78
2022/06/04 12:41:13;;;;;;;3.60;0.88;;;;;;;20.31;29.73;102351.94;4974088;28;20077;-76
2022/06/04 12:44:12;;;;;;;5.28;1.30;;;;;;;19.26;30.57;102352.41;4973406;28;20051;-78
2022/06/04 12:51:01;;;;;;;3.78;1.08;;;;;;;18.72;31.58;102367.59;4955700;28;20665;-76
2022/06/04 12:53:34;;;;;;;8.13;1.83;;;;;;;19.20;30.21;102355.38;4966575;28;20057;-77
2022/06/04 12:56:07;;;;;;;4.30;1.13;;;;;;;19.14;30.66;102361.00;4969762;28;20043;-78
2022/06/04 12:58:59;;;;;;;3.42;1.20;;;;;;;20.12;30.20;102358.25;4928873;29;20060;-74
2022/06/04 13:02:28;;;;;;;3.40;0.93;;;;;;;20.72;28.68;102357.44;4910653;29;20691;-80
2022/06/04 13:05:25;;;;;;;7.45;1.45;;;;;;;20.39;29.24;102360.28;4913031;29;20152;-78
2022/06/04 13:12:37;;;;;;;2.47;0.90;;;;;;;21.14;29.49;102360.25;4955732;28;20057;-79
2022/06/04 13:15:52;;;;;;;4.53;1.05;;;;;;;20.16;28.87;102369.56;4956324;28;20038;-78
2022/06/04 13:27:04;;;;;;;6.32;1.73;;;;;;;19.65;30.37;102361.78;4937947;29;20284;-78
2022/06/04 13:30:17;;;;;;;3.10;1.08;;;;;;;20.28;29.28;102362.72;4899449;29;20063;-77
2022/06/04 13:36:28;;;;;;;2.88;0.82;;;;;;;20.29;28.43;102364.44;4940490;28;20203;-77
2022/06/04 13:40:23;;;;;;;2.45;0.80;;;;;;;19.80;29.96;102368.06;4976555;28;20044;-75
2022/06/04 13:43:12;;;;;;;2.97;0.88;;;;;;;20.20;28.79;102364.94;4966489;28;20058;-78
2022/06/04 13:45:40;;;;;;;4.43;1.25;;;;;;;20.50;29.37;102365.81;4970787;28;20102;-78
2022/06/04 13:48:20;;;;;;;3.45;0.93;;;;;;;19.60;29.66;102358.53;4958596;28;20057;-76
2022/06/04 13:50:49;;;;;;;2.65;1.13;;;;;;;20.45;28.67;102349.31;4967247;28;20046;-78
2022/06/04 13:53:19;;;;;;;3.15;0.70;;;;;;;19.85;29.29;102358.03;4960650;28;20047;-77
2022/06/04 13:56:06;;;;;;;4.40;1.08;;;;;;;19.83;30.25;102351.09;4961516;28;20043;-77
2022/06/04 13:58:44;;;;;;;4.22;1.23;;;;;;;19.50;30.92;102352.88;4967021;28;20066;-78
2022/06/04 14:01:58;;;;;;;4.03;1.63;;;;;;;18.65;31.71;102360.88;4966928;28;20055;-77
2022/06/04 14:07:48;;;;;;;2.15;0.95;;;;;;;18.98;31.18;102357.44;4968347;28;20050;-75
2022/06/04 14:14:35;;;;;;;4.97;0.90;;;;;;;19.07;31.12;102356.97;4951767;28;20134;-79
2022/06/04 14:17:27;;;;;;;7.53;0.90;;;;;;;18.69;31.13;102357.13;4987540;28;20043;-77
2022/06/04 14:21:05;;;;;;;8.93;1.02;;;;;;;18.67;32.09;102345.75;4974092;28;20131;-76
2022/06/04 14:24:10;;;;;;;5.33;1.23;;;;;;;18.53;32.06;102341.16;4970483;28;20047;-76
2022/06/04 14:27:06;;;;;;;4.55;0.80;;;;;;;17.91;32.88;102347.75;4980722;28;20170;-77
2022/06/04 14:30:13;;;;;;;2.78;1.05;;;;;;;18.54;31.77;102352.59;4976869;28;20118;-76
2022/06/04 14:33:25;;;;;;;3.17;0.50;;;;;;;18.45;32.04;102354.81;4896341;28;20042;-78
2022/06/04 14:39:26;;;;;;;10.10;1.10;;;;;;;18.37;32.25;102341.09;4927057;28;20040;-78
2022/06/04 14:42:43;;;;;;;1.52;0.70;;;;;;;18.47;31.87;102333.53;4945774;28;20065;-77
2022/06/04 14:45:25;;;;;;;5.38;1.25;;;;;;;18.02;32.91;102333.06;4973417;28;20054;-78
2022/06/04 14:49:06;;;;;;;4.45;2.20;;;;;;;18.29;31.96;102337.97;4963125;28;20170;-77
2022/06/04 14:52:24;;;;;;;12.27;6.47;;;;;;;18.45;32.04;102340.69;4974397;28;20031;-76
2022/06/04 14:59:15;;;;;;;2.05;1.17;;;;;;;18.51;32.21;102343.03;4898442;29;20044;-75
2022/06/04 15:02:53;;;;;;;7.90;1.85;;;;;;;18.81;32.26;102337.97;4921977;28;20314;-77
2022/06/04 15:05:48;;;;;;;6.30;1.65;;;;;;;17.96;32.65;102338.66;4973491;28;20069;-76
2022/06/04 15:08:34;;;;;;;7.18;1.40;;;;;;;17.63;33.05;102344.63;4922362;28;20054;-76
2022/06/04 15:11:38;;;;;;;4.40;1.30;;;;;;;17.67;33.22;102325.97;4968024;28;20098;-76
2022/06/04 15:14:56;;;;;;;5.63;1.65;;;;;;;17.63;33.57;102322.63;4950162;28;20034;-79
2022/06/04 15:18:25;;;;;;;2.83;1.45;;;;;;;17.57;34.00;102331.69;4944825;28;20057;-77
2022/06/04 15:21:18;;;;;;;4.28;1.00;;;;;;;17.22;34.58;102326.22;4960180;28;20149;-75
2022/06/04 15:23:44;;;;;;;5.15;1.33;;;;;;;16.80;34.78;102319.28;4940686;28;20131;-77
2022/06/04 15:26:43;;;;;;;2.55;0.75;;;;;;;17.09;34.69;102319.78;4976178;28;20046;-76
2022/06/04 15:36:52;;;;;;;11.15;5.97;;;;;;;16.52;34.94;102316.94;4950343;28;20055;-78
2022/06/04 15:39:48;;;;;;;3.95;2.03;;;;;;;16.61;35.77;102313.03;4917541;28;20055;-79
2022/06/04 15:43:33;;;;;;;3.28;1.20;;;;;;;16.70;35.16;102315.28;4915672;28;20158;-81
2022/06/04 15:46:47;;;;;;;5.18;3.22;;;;;;;16.61;35.28;102320.97;4883561;28;20096;-78
2022/06/04 15:56:37;;;;;;;9.65;1.95;;;;;;;16.84;34.70;102309.41;4981075;28;20035;-82
2022/06/04 15:59:22;;;;;;;;;;;;;;;17.12;34.09;102301.13;4980305;28;20042;-78
2022/06/04 16:01:56;;;;;;;4.65;1.17;;;;;;;16.66;35.22;102305.78;4970328;28;19918;-75
2022/06/04 16:04:39;;;;;;;5.95;1.35;;;;;;;16.68;35.26;102303.94;4981270;28;20379;-78
2022/06/04 16:07:32;;;;;;;3.05;1.15;;;;;;;16.23;35.82;102304.09;4972863;28;20047;-76
2022/06/04 16:10:12;;;;;;;2.85;0.95;;;;;;;16.52;35.98;102306.38;4972137;28;20046;-78
2022/06/04 16:12:49;;;;;;;4.00;1.08;;;;;;;16.40;35.36;102296.34;4972428;28;20505;-77
2022/06/04 16:15:54;;;;;;;4.53;1.10;;;;;;;16.12;36.07;102296.63;4944962;28;20026;-78
2022/06/04 16:18:29;;;;;;;1.98;0.98;;;;;;;16.15;36.38;102301.75;4936737;28;20039;-78
2022/06/04 16:21:22;;;;;;;5.68;1.17;;;;;;;16.57;35.74;102303.53;4967135;28;20047;-78
2022/06/04 16:23:55;;;;;;;4.80;1.20;;;;;;;16.53;35.84;102299.31;4953877;28;20505;-78
2022/06/04 16:26:46;;;;;;;3.38;1.25;;;;;;;16.46;35.80;102295.22;4957356;28;20257;-77
2022/06/04 16:29:29;;;;;;;4.13;0.95;;;;;;;16.53;35.70;102291.38;4946040;28;20045;-80
2022/06/04 16:32:21;;;;;;;6.03;1.20;;;;;;;16.62;35.48;102299.78;4970990;28;20038;-79
2022/06/04 16:34:46;;;;;;;2.28;1.45;;;;;;;16.62;35.47;102296.25;4966826;28;20102;-78
2022/06/04 16:37:28;;;;;;;1.65;1.15;;;;;;;16.25;36.40;102287.28;4956408;28;20046;-77
2022/06/04 16:39:54;;;;;;;4.70;1.38;;;;;;;15.78;37.63;102297.97;4973530;28;20031;-78
2022/06/04 16:42:32;;;;;;;3.72;1.27;;;;;;;15.87;37.42;102286.19;4955832;28;20540;-78
2022/06/04 16:45:09;;;;;;;6.38;1.90;;;;;;;16.18;36.72;102296.38;4958015;28;20092;-78
2022/06/04 16:47:58;;;;;;;4.70;1.30;;;;;;;16.19;37.40;102287.53;4960185;28;20069;-77
2022/06/04 16:50:27;;;;;;;4.57;0.70;;;;;;;16.33;37.00;102290.47;4955351;28;20038;-78
2022/06/04 16:52:54;;;;;;;3.58;1.10;;;;;;;16.67;36.42;102281.09;4954505;28;20123;-76
2022/06/04 16:55:23;;;;;;;3.65;1.33;;;;;;;16.53;36.27;102281.72;4960446;28;20057;-78
2022/06/04 16:57:50;;;;;;;7.90;1.55;;;;;;;15.75;37.35;102283.13;4941941;28;20090;-77
2022/06/04 17:00:20;;;;;;;7.00;0.93;;;;;;;15.98;37.69;102289.25;4939188;28;20107;-75
2022/06/04 17:03:03;;;;;;;5.18;1.35;;;;;;;15.89;37.49;102294.91;4958427;28;20054;-78
2022/06/04 17:05:43;;;;;;;3.03;0.95;;;;;;;15.27;38.92;102301.69;4955708;28;20485;-77
2022/06/04 17:08:08;;;;;;;4.45;1.60;;;;;;;15.50;38.46;102298.16;4972370;28;20074;-78
2022/06/04 17:10:47;;;;;;;3.17;1.52;;;;;;;15.49;38.17;102292.03;4964928;28;20070;-78
2022/06/04 17:13:48;;;;;;;2.90;1.38;;;;;;;15.57;38.47;102289.97;4955389;28;20043;-78
2022/06/04 17:16:25;;;;;;;3.22;1.60;;;;;;;15.87;37.89;102287.03;4961273;28;20075;-78
2022/06/04 17:18:57;;;;;;;6.72;2.13;;;;;;;15.51;38.55;102292.84;4978670;28;20430;-76
2022/06/04 17:21:43;;;;;;;4.15;1.15;;;;;;;15.20;38.82;102294.91;4963712;28;20038;-76
2022/06/04 17:24:09;;;;;;;2.85;1.25;;;;;;;14.57;39.53;102290.09;4939213;28;20043;-78
2022/06/04 17:26:55;;;;;;;6.18;1.35;;;;;;;14.62;40.13;102298.69;4973015;28;22324;-79
2022/06/04 17:29:29;;;;;;;2.17;1.17;;;;;;;15.16;39.32;102292.34;4956326;28;20035;-77
2022/06/04 17:32:10;;;;;;;4.95;1.83;;;;;;;15.38;38.71;102292.44;4954284;28;20046;-77
2022/06/04 17:35:06;;;;;;;5.28;2.55;;;;;;;15.34;39.10;102292.63;4956310;28;20062;-79
2022/06/04 17:37:42;;;;;;;4.50;2.00;;;;;;;15.04;39.18;102292.81;4970795;28;20493;-77
2022/06/04 17:40:26;;;;;;;3.35;1.90;;;;;;;14.47;40.67;102291.31;4952878;28;20098;-78
2022/06/04 17:42:54;;;;;;;4.68;2.00;;;;;;;13.86;42.10;102300.28;4955152;28;20050;-78
2022/06/04 17:45:19;;;;;;;6.47;2.00;;;;;;;14.24;42.00;102292.91;4969388;28;20055;-81
2022/06/04 17:47:45;;;;;;;5.03;2.53;;;;;;;14.12;41.71;102288.94;4957261;28;20126;-79
2022/06/04 17:50:13;;;;;;;3.67;2.00;;;;;;;14.31;41.15;102289.16;4939402;28;20035;-78
2022/06/04 17:52:40;;;;;;;8.38;2.22;;;;;;;14.27;40.98;102284.06;4953732;28;20434;-79
2022/06/04 17:55:06;;;;;;;5.63;2.22;;;;;;;13.75;42.58;102285.75;4937578;28;20027;-78
2022/06/04 17:57:32;;;;;;;5.15;2.08;;;;;;;13.63;42.67;102292.22;4963110;28;20124;-79
2022/06/04 17:59:57;;;;;;;12.32;2.63;;;;;;;13.67;42.91;102286.84;4961868;28;20517;-78
2022/06/04 18:02:23;;;;;;;10.13;3.42;;;;;;;13.92;42.27;102286.94;4944389;28;20401;-77
2022/06/04 18:04:51;;;;;;;5.93;2.78;;;;;;;13.55;43.10;102291.59;4956199;28;20031;-80
2022/06/04 18:07:16;;;;;;;3.08;2.60;;;;;;;13.63;42.94;102295.72;4937698;28;20043;-79
2022/06/04 18:09:42;;;;;;;6.50;3.03;;;;;;;13.18;44.19;102297.91;4963372;28;20041;-77
2022/06/04 18:12:08;;;;;;;4.20;2.35;;;;;;;13.21;44.66;102292.56;4964007;28;20031;-81
2022/06/04 18:14:35;;;;;;;8.63;2.63;;;;;;;12.96;45.07;102288.03;4957811;28;20125;-79
2022/06/04 18:17:01;;;;;;;4.97;2.40;;;;;;;13.06;44.72;102293.84;4972557;28;20161;-79
2022/06/04 18:19:27;;;;;;;3.78;2.58;;;;;;;13.03;45.41;102289.56;4975268;28;20054;-77
2022/06/04 18:21:53;;;;;;;4.82;2.15;;;;;;;13.28;44.35;102296.75;4955389;28;20107;-79
2022/06/04 18:24:19;;;;;;;5.55;2.38;;;;;;;12.72;45.35;102289.53;4949207;28;20129;-78
2022/06/04 18:26:46;;;;;;;4.57;2.40;;;;;;;12.81;45.32;102281.41;4946258;28;20035;-79
2022/06/04 18:29:13;;;;;;;3.22;2.00;;;;;;;12.68;45.50;102286.09;4957384;28;20110;-79
2022/06/04 18:31:39;;;;;;;4.60;2.60;;;;;;;12.84;45.25;102283.94;4948570;28;20031;-78
2022/06/04 18:34:05;;;;;;;8.57;3.42;;;;;;;12.96;44.51;102289.75;4940421;28;20549;-77
2022/06/04 18:36:33;;;;;;;3.70;2.08;;;;;;;12.79;45.01;102291.09;4960039;28;20130;-77
2022/06/04 18:39:00;;;;;;;3.63;3.17;;;;;;;12.89;45.21;102289.94;4945316;28;20042;-77
2022/06/04 18:41:26;;;;;;;5.53;3.30;;;;;;;12.87;45.42;102293.50;4961765;28;20065;-78
2022/06/04 18:54:58;;;;;;;13.98;3.90;;;;;;;12.33;46.57;102296.63;4972114;28;20082;-77
2022/06/04 18:57:24;;;;;;;7.32;3.83;;;;;;;12.06;47.37;102299.00;4960399;28;20428;-80
2022/06/04 18:59:51;;;;;;;7.95;4.20;;;;;;;12.14;47.50;102299.69;4962069;28;20070;-77
2022/06/04 19:02:19;;;;;;;5.10;2.88;;;;;;;12.11;47.10;102297.16;4948015;28;20038;-78
2022/06/04 19:04:45;;;;;;;6.18;4.03;;;;;;;12.22;47.04;102307.38;4955691;28;20137;-76
2022/06/04 19:09:56;;;;;;;6.38;3.63;;;;;;;12.13;46.90;102300.59;4975200;28;20031;-77
2022/06/04 19:15:09;;;;;;;10.45;4.68;;;;;;;12.05;47.20;102307.78;4979456;28;20062;-78
2022/06/04 19:17:36;;;;;;;9.25;3.75;;;;;;;12.07;47.79;102300.75;4973601;28;20047;-79
2022/06/04 19:25:34;;;;;;;8.13;4.43;;;;;;;11.93;47.80;102305.44;4974219;28;20180;-75
2022/06/04 19:27:59;;;;;;;7.22;5.00;;;;;;;11.87;47.95;102304.69;4946210;28;20035;-79
2022/06/04 19:30:25;;;;;;;8.93;4.97;;;;;;;11.68;48.22;102306.81;4963436;28;20058;-77
2022/06/04 19:32:54;;;;;;;8.10;4.65;;;;;;;11.55;48.38;102302.72;4962167;28;20039;-76
2022/06/04 19:35:20;;;;;;;5.90;4.50;;;;;;;11.75;47.84;102302.28;4961333;28;20031;-79
2022/06/04 19:37:45;;;;;;;8.80;4.85;;;;;;;11.52;49.05;102301.94;4959534;28;20516;-78